createdAt,value
2023-05-19T00:03:23.800Z,6.00
2023-05-19T00:08:25.467Z,6.60
2023-05-19T00:13:27.997Z,5.90
2023-05-19T00:18:29.669Z,5.80
2023-05-19T00:23:31.563Z,6.00
2023-05-19T00:28:43.816Z,6.80
2023-05-19T00:33:45.687Z,6.10
2023-05-19T00:38:47.497Z,6.30
2023-05-19T00:43:49.559Z,6.00
2023-05-19T00:48:51.265Z,6.20
2023-05-19T00:53:53.896Z,5.90
2023-05-19T00:58:55.701Z,5.70
2023-05-19T01:03:57.865Z,6.40
2023-05-19T01:08:59.795Z,5.90
2023-05-19T01:14:08.323Z,6.00
2023-05-19T01:19:31.883Z,5.80
2023-05-19T01:25:08.380Z,5.40
2023-05-19T01:30:22.444Z,5.90
2023-05-19T01:35:25.781Z,6.60
2023-05-19T01:40:28.239Z,5.60
2023-05-19T01:45:30.630Z,6.70
2023-05-19T01:50:33.036Z,6.10
2023-05-19T01:55:43.712Z,6.20
2023-05-19T02:00:58.186Z,6.30
2023-05-19T02:06:09.110Z,6.60
2023-05-19T02:11:23.162Z,5.70
2023-05-19T02:16:28.948Z,6.60
2023-05-19T02:21:30.856Z,6.10
2023-05-19T02:26:35.029Z,6.40
2023-05-19T02:31:37.523Z,6.30
2023-05-19T02:36:40.733Z,5.90
2023-05-19T02:41:45.381Z,6.10
2023-05-19T02:46:47.323Z,7.10
2023-05-19T02:51:49.238Z,6.90
2023-05-19T02:56:50.955Z,6.80
2023-05-19T03:01:55.412Z,6.90
2023-05-19T03:07:01.205Z,7.90
2023-05-19T03:12:02.914Z,6.50
2023-05-19T03:17:05.202Z,6.60
2023-05-19T03:22:07.073Z,6.90
2023-05-19T03:27:08.820Z,7.10
2023-05-19T03:32:10.567Z,7.50
2023-05-19T03:37:12.582Z,6.90
2023-05-19T03:42:14.529Z,6.90
2023-05-19T03:47:16.343Z,6.30
2023-05-19T03:52:18.226Z,6.30
2023-05-19T03:57:20.199Z,6.60
2023-05-19T04:02:23.062Z,7.00
2023-05-19T04:07:24.795Z,6.40
2023-05-19T04:12:26.754Z,6.70
2023-05-19T04:17:28.657Z,7.00
2023-05-19T04:22:30.715Z,7.10
2023-05-19T04:27:32.520Z,6.40
2023-05-19T04:32:35.526Z,7.40
2023-05-19T04:37:37.682Z,7.10
2023-05-19T04:42:39.663Z,8.40
2023-05-19T04:47:42.104Z,7.90
2023-05-19T04:52:44.009Z,8.00
2023-05-19T04:57:45.821Z,7.70
2023-05-19T05:02:47.491Z,7.40
2023-05-19T05:07:49.489Z,7.80
2023-05-19T05:12:51.684Z,7.90
2023-05-19T05:17:53.832Z,8.10
2023-05-19T05:22:56.432Z,8.10
2023-05-19T05:27:58.196Z,7.90
2023-05-19T05:33:00.104Z,7.20
2023-05-19T05:38:02.778Z,8.20
2023-05-19T05:43:04.529Z,7.80
2023-05-19T05:48:06.819Z,8.30
2023-05-19T05:53:08.616Z,8.40
2023-05-19T05:58:10.295Z,8.60
2023-05-19T06:03:12.124Z,7.90
2023-05-19T06:08:14.165Z,8.50
2023-05-19T06:13:15.958Z,8.40
2023-05-19T06:18:18.529Z,7.80
2023-05-19T06:23:21.032Z,7.60
2023-05-19T06:28:22.712Z,7.00
2023-05-19T06:33:27.376Z,8.00
2023-05-19T06:38:30.563Z,7.40
2023-05-19T06:43:32.252Z,8.10
2023-05-19T06:48:34.006Z,6.70
2023-05-19T06:53:35.685Z,7.30
2023-05-19T06:58:37.851Z,7.60
2023-05-19T07:03:39.613Z,7.90
2023-05-19T07:08:41.712Z,7.80
2023-05-19T07:13:43.996Z,8.20
2023-05-19T07:18:45.713Z,8.30
2023-05-19T07:23:48.162Z,8.10
2023-05-19T07:28:49.869Z,8.50
2023-05-19T07:33:54.316Z,8.60
2023-05-19T07:38:56.405Z,7.50
2023-05-19T07:43:58.242Z,7.90
2023-05-19T07:49:00.128Z,7.70
2023-05-19T07:54:01.855Z,7.70
2023-05-19T07:59:03.979Z,8.10
2023-05-19T08:04:05.948Z,7.70
2023-05-19T08:09:08.035Z,6.90
2023-05-19T08:14:09.710Z,8.00
2023-05-19T08:19:11.511Z,6.90
2023-05-19T08:24:13.876Z,8.20
2023-05-19T08:29:15.761Z,7.10
2023-05-19T08:34:17.734Z,7.80
2023-05-19T08:39:19.617Z,8.50
2023-05-19T08:44:21.940Z,7.70
2023-05-19T08:49:27.373Z,7.80
2023-05-19T08:54:32.340Z,7.10
2023-05-19T08:59:34.196Z,7.60
2023-05-19T09:04:38.926Z,7.10
2023-05-19T09:09:41.637Z,7.80
2023-05-19T09:14:43.717Z,7.90
2023-05-19T09:19:45.374Z,6.90
2023-05-19T09:24:48.060Z,7.20
2023-05-19T09:29:49.753Z,6.90
2023-05-19T09:34:51.539Z,6.50
2023-05-19T09:39:53.301Z,6.80
2023-05-19T09:45:02.251Z,7.00
2023-05-19T09:50:09.122Z,6.60
2023-05-19T09:55:12.159Z,7.20
2023-05-19T10:00:14.660Z,6.70
2023-05-19T10:05:20.261Z,6.50
2023-05-19T10:10:26.803Z,7.40
2023-05-19T10:15:29.093Z,7.00
2023-05-19T10:20:31.040Z,6.20
2023-05-19T10:25:35.921Z,6.10
2023-05-19T10:30:40.795Z,6.10
2023-05-19T10:36:00.977Z,6.90
2023-05-19T10:41:27.460Z,6.10
2023-05-19T10:46:29.742Z,6.60
2023-05-19T10:51:31.936Z,5.80
2023-05-19T10:56:34.377Z,6.10
2023-05-19T11:01:36.201Z,6.40
2023-05-19T11:06:39.308Z,5.40
2023-05-19T11:11:54.286Z,6.20
2023-05-19T11:16:59.795Z,6.10
2023-05-19T11:22:12.302Z,5.80
2023-05-19T11:27:19.671Z,5.70
2023-05-19T11:32:22.131Z,5.40
2023-05-19T11:37:23.851Z,5.20
2023-05-19T11:42:25.638Z,4.40
2023-05-19T11:47:28.037Z,5.30
2023-05-19T11:52:29.868Z,5.20
2023-05-19T11:57:31.677Z,5.10
2023-05-19T12:02:34.284Z,5.50
2023-05-19T12:07:36.432Z,4.80
2023-05-19T12:12:38.207Z,5.20
2023-05-19T12:17:40.035Z,5.10
2023-05-19T12:22:41.963Z,5.20
2023-05-19T12:27:44.368Z,4.90
2023-05-19T12:32:50.138Z,4.60
2023-05-19T12:37:52.105Z,4.30
2023-05-19T12:42:56.643Z,4.40
2023-05-19T12:47:58.456Z,4.50
2023-05-19T12:53:00.402Z,4.70
2023-05-19T12:58:05.786Z,3.90
2023-05-19T13:03:09.203Z,4.80
2023-05-19T13:08:15.256Z,4.20
2023-05-19T13:13:17.308Z,4.50
2023-05-19T13:18:19.018Z,4.40
2023-05-19T13:23:21.102Z,4.30
2023-05-19T13:28:22.898Z,4.60
2023-05-19T13:33:24.520Z,4.90
2023-05-19T13:38:26.418Z,4.50
2023-05-19T13:43:28.118Z,5.00
2023-05-19T13:48:29.979Z,4.90
2023-05-19T13:53:32.002Z,4.30
2023-05-19T13:58:34.448Z,5.30
2023-05-19T14:03:36.278Z,5.70
2023-05-19T14:08:38.309Z,5.20
2023-05-19T14:13:42.721Z,4.50
2023-05-19T14:18:46.277Z,5.00
2023-05-19T14:23:48.399Z,4.60
2023-05-19T14:28:50.343Z,5.40
2023-05-19T14:33:58.243Z,4.40
2023-05-19T14:39:00.032Z,4.50
2023-05-19T14:44:02.000Z,4.40
2023-05-19T14:49:03.880Z,3.70
2023-05-19T14:54:05.664Z,4.20
2023-05-19T14:59:07.740Z,4.40
2023-05-19T15:04:09.818Z,4.20
2023-05-19T15:09:11.804Z,4.60
2023-05-19T15:14:15.321Z,4.30
2023-05-19T15:19:17.980Z,4.60
2023-05-19T15:24:20.815Z,8.50
2023-05-19T15:29:26.275Z,3.80
2023-05-19T15:34:29.284Z,4.80
2023-05-19T15:39:33.531Z,4.20
2023-05-19T15:44:35.402Z,3.50
2023-05-19T15:49:37.197Z,3.60
2023-05-19T15:54:38.852Z,4.20
2023-05-19T15:59:40.730Z,3.60
2023-05-19T16:04:43.631Z,4.10
2023-05-19T16:09:45.328Z,3.30
2023-05-19T16:14:47.188Z,3.60
2023-05-19T16:19:48.992Z,3.60
2023-05-19T16:24:51.396Z,3.40
2023-05-19T16:29:53.135Z,4.10
2023-05-19T16:34:54.797Z,3.60
2023-05-19T16:39:56.583Z,3.10
2023-05-19T16:44:58.552Z,3.60
2023-05-19T16:50:00.337Z,4.00
2023-05-19T16:55:02.206Z,3.70
2023-05-19T17:00:07.786Z,4.00
2023-05-19T17:05:09.539Z,4.40
2023-05-19T17:10:11.323Z,4.20
2023-05-19T17:15:13.177Z,4.10
2023-05-19T17:20:17.367Z,4.60
2023-05-19T17:25:19.212Z,4.80
2023-05-19T17:30:21.290Z,4.40
2023-05-19T17:35:23.173Z,5.00
2023-05-19T17:40:25.060Z,4.80
2023-05-19T17:45:26.928Z,4.60
2023-05-19T17:50:28.914Z,5.10
2023-05-19T17:55:35.903Z,4.90
2023-05-19T18:00:38.220Z,4.60
2023-05-19T18:05:40.722Z,4.70
2023-05-19T18:10:43.102Z,4.60
2023-05-19T18:15:45.164Z,4.80
2023-05-19T18:20:47.035Z,5.20
2023-05-19T18:25:49.988Z,4.50
2023-05-19T18:31:01.954Z,5.00
2023-05-19T18:36:04.337Z,4.60
2023-05-19T18:41:06.910Z,4.80
2023-05-19T18:46:08.898Z,4.80
2023-05-19T18:51:10.901Z,5.10
2023-05-19T18:56:13.801Z,5.10
2023-05-19T19:01:15.846Z,5.50
2023-05-19T19:06:17.665Z,5.00
2023-05-19T19:11:25.113Z,4.80
2023-05-19T19:16:27.811Z,4.80
2023-05-19T19:21:30.897Z,5.50
2023-05-19T19:26:32.855Z,5.30
2023-05-19T19:31:34.824Z,5.70
2023-05-19T19:36:36.714Z,4.40
2023-05-19T19:41:38.553Z,5.20
2023-05-19T19:46:40.723Z,4.80
2023-05-19T19:51:42.493Z,5.60
2023-05-19T19:56:44.754Z,5.20
2023-05-19T20:01:46.695Z,5.20
2023-05-19T20:06:48.602Z,5.50
2023-05-19T20:11:50.479Z,5.00
2023-05-19T20:16:52.407Z,5.10
2023-05-19T20:21:54.354Z,5.30
2023-05-19T20:26:56.327Z,5.50
2023-05-19T20:31:58.194Z,5.50
2023-05-19T20:37:00.020Z,4.80
2023-05-19T20:42:01.747Z,6.60
2023-05-19T20:47:03.629Z,5.90
2023-05-19T20:52:05.549Z,6.10
2023-05-19T20:57:07.496Z,6.20
2023-05-19T21:02:09.579Z,5.10
2023-05-19T21:07:11.622Z,6.50
2023-05-19T21:12:13.747Z,5.20
2023-05-19T21:17:15.704Z,5.10
2023-05-19T21:22:17.527Z,5.50
2023-05-19T21:27:19.505Z,5.60
2023-05-19T21:32:21.714Z,5.30
2023-05-19T21:37:23.476Z,5.40
2023-05-19T21:42:25.229Z,5.00
2023-05-19T21:47:27.496Z,5.00
2023-05-19T21:52:29.494Z,5.50
2023-05-19T21:57:31.462Z,5.70
2023-05-19T22:02:33.355Z,5.90
2023-05-19T22:07:35.069Z,6.10
2023-05-19T22:12:36.867Z,6.10
2023-05-19T22:17:38.834Z,6.30
2023-05-19T22:22:41.278Z,5.50
2023-05-19T22:27:43.033Z,5.30
2023-05-19T22:32:46.212Z,5.60
2023-05-19T22:37:47.913Z,5.50
2023-05-19T22:42:50.180Z,5.50
2023-05-19T22:47:52.009Z,5.50
2023-05-19T22:52:53.961Z,5.30
2023-05-19T22:57:55.849Z,5.20
2023-05-19T23:02:57.661Z,6.30
2023-05-19T23:07:59.611Z,5.60
2023-05-19T23:13:01.472Z,5.50
2023-05-19T23:18:03.411Z,6.70
2023-05-19T23:23:05.348Z,5.80
2023-05-19T23:28:07.235Z,5.80
2023-05-19T23:33:09.010Z,5.40
2023-05-19T23:38:10.892Z,5.50
2023-05-19T23:43:12.953Z,5.60
2023-05-19T23:48:14.646Z,5.80
2023-05-19T23:53:16.347Z,6.30
2023-05-19T23:58:18.184Z,6.10
